Time;durP1;ratioP1;P1;durP2;ratioP2;P2;SDS_P1;SDS_P2;PMS_P1;PMS_P2;Temp;Humidity;BMP_temperature;BMP_pressure;BME280_temperature;BME280_humidity;BME280_pressure;Samples;Min_cycle;Max_cycle;Signal;HPM_P1;HPM_P2
2021/08/08 00:01:44;;;;;;;19.17;12.13;;;15.40;99.90;;;;;;4391202;32;20167;-68
2021/08/08 00:04:11;;;;;;;12.37;10.43;;;15.40;99.90;;;;;;4390981;32;20144;-68
2021/08/08 00:06:38;;;;;;;13.10;10.97;;;15.40;99.90;;;;;;4391799;32;20627;-68
2021/08/08 00:09:05;;;;;;;17.17;11.67;;;15.40;99.90;;;;;;4391338;32;20140;-68
2021/08/08 00:11:32;;;;;;;14.67;12.17;;;15.40;99.90;;;;;;4391367;32;20140;-69
2021/08/08 00:14:00;;;;;;;16.50;12.10;;;15.40;99.90;;;;;;4390913;32;20167;-67
2021/08/08 00:16:28;;;;;;;14.33;11.10;;;15.40;99.90;;;;;;4392196;32;20156;-69
2021/08/08 00:19:01;;;;;;;15.13;11.30;;;15.40;99.90;;;;;;4394747;32;20245;-68
2021/08/08 00:21:28;;;;;;;17.63;12.30;;;15.40;99.90;;;;;;4393568;32;20234;-68
2021/08/08 00:23:57;;;;;;;16.77;11.27;;;15.30;99.90;;;;;;4394390;32;20167;-68
2021/08/08 00:26:24;;;;;;;13.30;10.40;;;15.30;99.90;;;;;;4381303;32;20147;-68
2021/08/08 00:28:56;;;;;;;13.77;11.87;;;15.20;99.90;;;;;;4377341;32;20301;-68
2021/08/08 00:31:28;;;;;;;22.90;13.63;;;15.20;99.90;;;;;;4383107;32;20198;-68
2021/08/08 00:33:55;;;;;;;22.27;15.10;;;15.30;99.90;;;;;;4385198;32;20194;-68
2021/08/08 00:36:22;;;;;;;18.80;12.53;;;15.30;99.90;;;;;;4389804;32;20568;-65
2021/08/08 00:38:49;;;;;;;17.50;12.53;;;15.30;99.90;;;;;;4396812;32;20164;-66
2021/08/08 00:41:16;;;;;;;18.17;12.73;;;15.40;99.90;;;;;;4390629;32;20159;-67
2021/08/08 00:43:42;;;;;;;16.23;11.90;;;15.40;99.90;;;;;;4390941;32;20159;-67
2021/08/08 00:46:10;;;;;;;14.93;11.77;;;15.50;99.90;;;;;;4390431;32;20152;-68
2021/08/08 00:48:38;;;;;;;14.10;11.43;;;15.40;99.90;;;;;;4391193;32;20174;-68
2021/08/08 00:51:05;;;;;;;16.63;10.80;;;15.50;99.90;;;;;;4390770;32;20473;-68
2021/08/08 00:53:32;;;;;;;18.60;12.37;;;15.50;99.90;;;;;;4390539;32;20167;-67
2021/08/08 00:55:59;;;;;;;16.23;12.43;;;15.50;99.90;;;;;;4390478;32;20183;-67
2021/08/08 00:58:28;;;;;;;16.37;10.97;;;15.50;99.90;;;;;;4390628;32;20159;-67
2021/08/08 01:00:57;;;;;;;16.00;10.33;;;15.50;99.90;;;;;;4391336;32;20137;-67
2021/08/08 01:03:25;;;;;;;11.73;10.00;;;15.50;99.90;;;;;;4391074;32;20152;-65
2021/08/08 01:06:01;;;;;;;16.50;10.03;;;15.50;99.90;;;;;;4392086;32;20145;-68
2021/08/08 01:08:30;;;;;;;16.33;10.13;;;15.50;99.90;;;;;;4390546;32;20170;-68
2021/08/08 01:11:01;;;;;;;15.33;10.20;;;15.50;99.90;;;;;;4390371;32;20172;-68
2021/08/08 01:13:30;;;;;;;14.87;9.27;;;15.60;99.90;;;;;;4390567;32;20583;-69
2021/08/08 01:16:00;;;;;;;13.13;9.70;;;15.60;99.90;;;;;;4390917;32;20188;-68
2021/08/08 01:18:29;;;;;;;14.90;8.73;;;15.60;99.90;;;;;;4390785;32;20330;-68
2021/08/08 01:20:58;;;;;;;13.27;9.03;;;15.70;99.90;;;;;;4390577;32;20191;-68
2021/08/08 01:23:31;;;;;;;11.27;7.10;;;15.70;99.90;;;;;;4390922;32;20162;-66
2021/08/08 01:26:00;;;;;;;8.23;6.70;;;15.70;99.90;;;;;;4390488;32;20233;-67
2021/08/08 01:28:27;;;;;;;9.87;5.50;;;15.60;99.90;;;;;;4390188;32;20171;-70
2021/08/08 01:30:54;;;;;;;9.30;4.63;;;15.70;99.90;;;;;;4391588;32;20144;-67
2021/08/08 01:33:20;;;;;;;7.40;4.27;;;15.60;99.90;;;;;;4390128;32;20583;-67
2021/08/08 01:35:49;;;;;;;6.50;4.37;;;15.60;99.90;;;;;;4390000;32;20184;-69
2021/08/08 01:38:16;;;;;;;9.60;5.00;;;15.60;99.90;;;;;;4391764;32;20143;-66
2021/08/08 01:40:51;;;;;;;8.53;5.70;;;15.60;99.90;;;;;;4390309;32;20216;-66
2021/08/08 01:43:25;;;;;;;14.27;7.37;;;15.60;99.90;;;;;;4391669;32;20194;-67
2021/08/08 01:45:55;;;;;;;9.43;7.13;;;15.60;99.90;;;;;;4393159;32;20151;-65
2021/08/08 01:48:24;;;;;;;14.67;8.30;;;15.60;99.90;;;;;;4393134;32;20553;-65
2021/08/08 01:50:50;;;;;;;12.33;8.87;;;15.60;99.90;;;;;;4393084;32;20159;-66
2021/08/08 01:53:17;;;;;;;19.27;10.83;;;15.70;99.90;;;;;;4394317;32;20163;-66
2021/08/08 01:55:44;;;;;;;22.43;12.40;;;15.70;99.90;;;;;;4392925;32;20133;-66
2021/08/08 01:58:11;;;;;;;18.03;10.00;;;15.70;99.90;;;;;;4392976;32;20152;-67
2021/08/08 02:00:39;;;;;;;24.83;13.20;;;15.80;99.90;;;;;;4392839;32;20179;-67
2021/08/08 02:03:06;;;;;;;23.03;12.33;;;15.70;99.90;;;;;;4392875;32;20178;-66
2021/08/08 02:05:34;;;;;;;22.30;13.63;;;15.70;99.90;;;;;;4392857;32;20506;-67
2021/08/08 02:08:01;;;;;;;27.53;14.67;;;15.70;99.90;;;;;;4392583;32;20178;-67
2021/08/08 02:10:28;;;;;;;24.60;14.27;;;15.70;99.90;;;;;;4392785;32;20175;-65
2021/08/08 02:12:54;;;;;;;25.40;13.40;;;15.80;99.90;;;;;;4392859;32;20167;-66
2021/08/08 02:15:21;;;;;;;27.70;13.97;;;15.70;99.90;;;;;;4392270;32;20144;-65
2021/08/08 02:17:49;;;;;;;24.17;14.70;;;15.80;99.90;;;;;;4393300;32;20514;-64
2021/08/08 02:20:18;;;;;;;29.10;15.50;;;15.70;99.90;;;;;;4392960;32;20186;-66
2021/08/08 02:22:45;;;;;;;37.50;17.20;;;15.70;99.90;;;;;;4393052;32;20211;-66
2021/08/08 02:25:13;;;;;;;32.70;17.30;;;15.70;99.90;;;;;;4392513;32;20152;-64
2021/08/08 02:27:39;;;;;;;38.27;16.90;;;15.70;99.90;;;;;;4392318;32;20515;-66
2021/08/08 02:30:08;;;;;;;32.13;17.57;;;15.70;99.90;;;;;;4392480;32;20148;-65
2021/08/08 02:32:34;;;;;;;31.87;17.00;;;15.60;99.90;;;;;;4392245;32;20527;-67
2021/08/08 02:35:03;;;;;;;35.07;16.43;;;15.60;99.90;;;;;;4392412;32;20164;-65
2021/08/08 02:37:30;;;;;;;26.50;15.67;;;15.60;99.90;;;;;;4392621;32;20166;-66
2021/08/08 02:39:57;;;;;;;35.83;16.93;;;15.60;99.90;;;;;;4392241;32;20174;-67
2021/08/08 02:42:24;;;;;;;42.10;17.33;;;15.60;99.90;;;;;;4392402;32;20144;-65
2021/08/08 02:44:50;;;;;;;49.47;17.70;;;15.60;99.90;;;;;;4392365;32;20159;-64
2021/08/08 02:47:17;;;;;;;37.67;14.87;;;15.60;99.90;;;;;;4392696;32;20144;-65
2021/08/08 02:49:44;;;;;;;49.40;15.17;;;15.60;99.90;;;;;;4392850;32;20201;-66
2021/08/08 02:52:12;;;;;;;45.87;16.37;;;15.50;99.90;;;;;;4392160;32;20270;-65
2021/08/08 02:54:39;;;;;;;39.13;16.00;;;15.50;99.90;;;;;;4391372;32;20180;-66
2021/08/08 02:57:06;;;;;;;35.60;15.40;;;15.50;99.90;;;;;;4392060;32;20685;-64
2021/08/08 02:59:35;;;;;;;40.27;15.37;;;15.50;99.90;;;;;;4391695;32;20174;-65
2021/08/08 03:02:02;;;;;;;45.70;14.77;;;15.50;99.90;;;;;;4392060;32;20159;-66
2021/08/08 03:04:29;;;;;;;47.00;16.27;;;15.50;99.90;;;;;;4392273;32;20176;-66
2021/08/08 03:06:57;;;;;;;45.43;16.47;;;15.50;99.90;;;;;;4392996;32;20206;-66
2021/08/08 03:09:25;;;;;;;39.87;14.77;;;15.40;99.90;;;;;;4391900;32;20144;-65
2021/08/08 03:11:52;;;;;;;30.37;14.30;;;15.40;99.90;;;;;;4391986;32;20144;-68
2021/08/08 03:14:20;;;;;;;50.30;15.60;;;15.40;99.90;;;;;;4392082;32;20190;-67
2021/08/08 03:16:48;;;;;;;34.80;14.67;;;15.40;99.90;;;;;;4391755;32;20144;-66
2021/08/08 03:19:17;;;;;;;43.23;15.13;;;15.40;99.90;;;;;;4392149;32;20159;-65
2021/08/08 03:21:44;;;;;;;38.23;14.00;;;15.40;99.90;;;;;;4392504;32;20152;-66
2021/08/08 03:24:11;;;;;;;31.83;14.07;;;15.40;99.90;;;;;;4391581;32;20178;-66
2021/08/08 03:26:40;;;;;;;47.40;16.03;;;15.40;99.90;;;;;;4391369;32;20484;-66
2021/08/08 03:29:08;;;;;;;37.70;14.30;;;15.40;99.90;;;;;;4391467;32;20175;-68
2021/08/08 03:31:35;;;;;;;44.07;14.57;;;15.40;99.90;;;;;;4393234;32;20140;-68
2021/08/08 03:34:02;;;;;;;38.47;15.27;;;15.40;99.90;;;;;;4391607;32;20149;-67
2021/08/08 03:36:29;;;;;;;37.37;14.27;;;15.40;99.90;;;;;;4393104;32;20194;-67
2021/08/08 03:38:56;;;;;;;54.13;15.27;;;15.30;99.90;;;;;;4391501;32;20145;-65
2021/08/08 03:41:23;;;;;;;28.93;13.57;;;15.20;99.90;;;;;;4391349;32;20299;-66
2021/08/08 03:43:51;;;;;;;38.13;14.50;;;15.20;99.90;;;;;;4391529;32;20622;-66
2021/08/08 03:46:18;;;;;;;36.67;14.00;;;15.10;99.90;;;;;;4394315;32;20170;-66
2021/08/08 03:48:56;;;;;;;32.43;13.07;;;15.00;99.90;;;;;;4387492;32;20286;-66
2021/08/08 03:51:24;;;;;;;26.47;12.10;;;15.00;99.90;;;;;;4395158;32;20197;-68
2021/08/08 03:53:51;;;;;;;30.80;12.43;;;15.00;99.90;;;;;;4390434;32;20144;-69
2021/08/08 03:56:17;;;;;;;29.97;12.87;;;15.10;99.90;;;;;;4393134;32;20397;-67
2021/08/08 03:58:44;;;;;;;26.63;12.43;;;15.10;99.90;;;;;;4398963;32;20201;-68
2021/08/08 04:01:12;;;;;;;29.47;12.47;;;15.20;99.90;;;;;;4391081;32;20202;-66
2021/08/08 04:03:39;;;;;;;28.57;13.63;;;15.20;99.90;;;;;;4395409;32;20265;-69
2021/08/08 04:06:06;;;;;;;26.00;13.50;;;15.20;99.90;;;;;;4394599;32;20151;-69
2021/08/08 04:08:33;;;;;;;29.83;13.90;;;15.20;99.90;;;;;;4391187;32;20234;-67
2021/08/08 04:11:00;;;;;;;25.60;12.90;;;15.20;99.90;;;;;;4391156;32;20583;-66
2021/08/08 04:13:27;;;;;;;20.93;12.37;;;15.20;99.90;;;;;;4392721;32;20164;-67
2021/08/08 04:15:53;;;;;;;24.10;11.90;;;15.30;99.90;;;;;;4392763;32;20148;-68
2021/08/08 04:18:22;;;;;;;30.00;12.93;;;15.30;99.90;;;;;;4391558;32;20163;-66
2021/08/08 04:20:48;;;;;;;28.60;11.27;;;15.40;99.90;;;;;;4391075;32;20186;-68
2021/08/08 04:23:16;;;;;;;23.67;11.47;;;15.30;99.90;;;;;;4391553;32;20167;-68
2021/08/08 04:25:43;;;;;;;17.23;9.50;;;15.30;99.90;;;;;;4391089;32;20144;-67
2021/08/08 04:28:10;;;;;;;19.00;10.10;;;15.20;99.90;;;;;;4390889;32;20583;-67
2021/08/08 04:30:37;;;;;;;22.43;10.60;;;15.10;99.90;;;;;;4391000;32;20163;-67
2021/08/08 04:33:05;;;;;;;22.07;11.03;;;15.10;99.90;;;;;;4390706;32;20218;-68
2021/08/08 04:35:34;;;;;;;28.50;11.23;;;15.10;99.90;;;;;;4384522;32;20143;-67
2021/08/08 04:38:01;;;;;;;32.57;12.57;;;15.10;99.90;;;;;;4390502;32;20568;-67
2021/08/08 04:40:28;;;;;;;17.87;10.83;;;15.10;99.90;;;;;;4390819;32;20572;-68
2021/08/08 04:42:55;;;;;;;20.37;11.23;;;15.10;99.90;;;;;;4390668;32;20163;-67
2021/08/08 04:45:22;;;;;;;29.60;13.97;;;15.20;99.90;;;;;;4390643;32;20166;-67
2021/08/08 04:47:50;;;;;;;31.03;12.27;;;15.10;99.90;;;;;;4390996;32;20144;-67
2021/08/08 04:50:17;;;;;;;32.73;12.97;;;15.10;99.90;;;;;;4390549;32;20235;-68
2021/08/08 04:52:46;;;;;;;50.07;14.37;;;15.20;99.90;;;;;;4391047;32;20144;-68
2021/08/08 04:55:14;;;;;;;41.50;15.40;;;15.10;99.90;;;;;;4390809;32;20136;-69
2021/08/08 04:57:41;;;;;;;30.43;12.90;;;15.20;99.90;;;;;;4391048;32;20147;-68
2021/08/08 05:00:09;;;;;;;32.53;14.07;;;15.10;99.90;;;;;;4390308;32;20136;-67
2021/08/08 05:02:36;;;;;;;36.33;15.53;;;15.20;99.90;;;;;;4391692;32;20460;-67
2021/08/08 05:05:04;;;;;;;41.73;14.00;;;15.10;99.90;;;;;;4391469;32;20182;-68
2021/08/08 05:07:32;;;;;;;29.87;12.47;;;15.10;99.90;;;;;;4391175;32;20191;-68
2021/08/08 05:10:00;;;;;;;37.90;13.80;;;15.10;99.90;;;;;;4390329;32;20163;-67
2021/08/08 05:12:29;;;;;;;36.63;13.43;;;15.10;99.90;;;;;;4390202;32;20190;-68
2021/08/08 05:14:56;;;;;;;32.40;12.63;;;15.10;99.90;;;;;;4390468;32;20140;-67
2021/08/08 05:17:23;;;;;;;32.10;12.20;;;15.20;99.90;;;;;;4390472;32;20187;-68
2021/08/08 05:19:50;;;;;;;36.10;12.67;;;15.20;99.90;;;;;;4393564;32;20166;-68
2021/08/08 05:22:16;;;;;;;38.90;12.67;;;15.20;99.90;;;;;;4393268;32;20224;-67
2021/08/08 05:24:43;;;;;;;45.70;12.10;;;15.20;99.90;;;;;;4393374;32;20143;-67
2021/08/08 05:27:11;;;;;;;37.37;14.03;;;15.20;99.90;;;;;;4394639;32;20148;-66
2021/08/08 05:29:38;;;;;;;35.30;13.40;;;15.30;99.90;;;;;;4393179;32;20144;-67
2021/08/08 05:32:06;;;;;;;31.87;12.30;;;15.30;99.90;;;;;;4393400;32;20140;-67
2021/08/08 05:34:33;;;;;;;39.10;13.83;;;15.30;99.90;;;;;;4393505;32;20181;-67
2021/08/08 05:36:59;;;;;;;41.23;13.77;;;15.20;99.90;;;;;;4393095;32;20148;-67
2021/08/08 05:39:29;;;;;;;27.87;12.13;;;15.30;99.90;;;;;;4393107;32;20170;-67
2021/08/08 05:41:56;;;;;;;31.17;12.10;;;15.30;99.90;;;;;;4393742;32;20179;-70
2021/08/08 05:44:24;;;;;;;26.93;12.10;;;15.30;99.90;;;;;;4394323;32;20182;-68
2021/08/08 05:46:52;;;;;;;30.60;13.43;;;15.20;99.90;;;;;;4393139;32;20144;-68
2021/08/08 05:49:19;;;;;;;25.17;11.30;;;15.20;99.90;;;;;;4393224;32;20160;-67
2021/08/08 05:51:46;;;;;;;28.13;10.37;;;15.20;99.90;;;;;;4392920;32;20164;-68
2021/08/08 05:54:13;;;;;;;29.73;11.40;;;15.20;99.90;;;;;;4392987;32;20158;-68
2021/08/08 05:56:39;;;;;;;20.27;10.23;;;15.30;99.90;;;;;;4392944;32;20148;-68
2021/08/08 05:59:06;;;;;;;28.37;11.37;;;15.30;99.90;;;;;;4392928;32;20144;-68
2021/08/08 06:01:37;;;;;;;25.27;10.87;;;15.20;99.90;;;;;;4393803;32;20152;-68
2021/08/08 06:04:04;;;;;;;24.23;11.17;;;15.10;99.90;;;;;;4392933;32;20441;-67
2021/08/08 06:06:33;;;;;;;32.30;11.77;;;15.10;99.90;;;;;;4392843;32;20207;-67
2021/08/08 06:08:59;;;;;;;27.60;12.63;;;15.00;99.90;;;;;;4393252;32;20160;-67
2021/08/08 06:11:26;;;;;;;30.00;13.10;;;15.10;99.90;;;;;;4392636;32;20179;-67
2021/08/08 06:13:53;;;;;;;35.97;12.03;;;15.10;99.90;;;;;;4393336;32;20202;-67
2021/08/08 06:16:20;;;;;;;33.53;11.07;;;15.10;99.90;;;;;;4393350;32;20141;-67
2021/08/08 06:18:51;;;;;;;33.63;12.33;;;15.20;99.90;;;;;;4395555;32;20234;-66
2021/08/08 06:21:18;;;;;;;32.13;11.43;;;15.30;99.90;;;;;;4385341;32;20152;-67
2021/08/08 06:23:48;;;;;;;25.27;12.77;;;15.20;99.90;;;;;;4385435;32;20234;-67
2021/08/08 06:26:15;;;;;;;33.83;11.70;;;15.10;99.90;;;;;;4382907;32;20250;-66
2021/08/08 06:28:48;;;;;;;31.10;11.57;;;15.20;99.90;;;;;;4383141;32;20199;-68
2021/08/08 06:31:17;;;;;;;38.07;11.90;;;15.30;99.90;;;;;;4384766;32;20215;-68
2021/08/08 06:33:51;;;;;;;29.30;12.03;;;15.40;99.90;;;;;;4385518;32;20217;-68
2021/08/08 06:36:18;;;;;;;39.23;11.67;;;15.50;99.90;;;;;;4382351;32;20266;-67
2021/08/08 06:38:45;;;;;;;38.93;10.60;;;15.60;99.90;;;;;;4388102;32;20582;-67
2021/08/08 06:41:12;;;;;;;28.43;10.53;;;15.70;99.90;;;;;;4400533;32;20270;-69
2021/08/08 06:43:39;;;;;;;24.50;9.60;;;15.90;99.90;;;;;;4379336;32;20191;-68
2021/08/08 06:46:06;;;;;;;24.93;8.97;;;16.10;99.90;;;;;;4392427;32;20174;-67
2021/08/08 06:48:34;;;;;;;22.50;9.50;;;16.00;99.90;;;;;;4392281;32;20198;-69
2021/08/08 06:51:03;;;;;;;24.70;9.17;;;15.90;99.90;;;;;;4392306;32;20501;-68
2021/08/08 06:53:30;;;;;;;21.27;8.87;;;15.80;99.90;;;;;;4392509;32;20170;-70
2021/08/08 06:55:58;;;;;;;29.30;9.80;;;15.90;99.90;;;;;;4392222;32;20149;-67
2021/08/08 06:58:25;;;;;;;21.57;7.33;;;15.90;99.90;;;;;;4392155;32;20174;-69
2021/08/08 07:00:52;;;;;;;25.77;8.37;;;15.80;99.90;;;;;;4391946;32;20196;-68
2021/08/08 07:03:19;;;;;;;32.73;9.10;;;15.80;99.90;;;;;;4392025;32;20214;-67
2021/08/08 07:05:46;;;;;;;22.07;8.73;;;15.80;99.90;;;;;;4392021;32;20163;-69
2021/08/08 07:08:16;;;;;;;25.67;8.07;;;16.00;99.90;;;;;;4392189;32;20179;-67
2021/08/08 07:10:47;;;;;;;17.67;7.10;;;16.20;99.90;;;;;;4391821;32;20183;-67
2021/08/08 07:13:14;;;;;;;19.67;6.57;;;16.70;99.90;;;;;;4392041;32;20143;-69
2021/08/08 07:15:41;;;;;;;21.47;7.00;;;16.90;99.90;;;;;;4391775;32;20151;-69
2021/08/08 07:18:08;;;;;;;20.17;6.77;;;17.10;99.90;;;;;;4391820;32;20467;-69
2021/08/08 07:20:36;;;;;;;20.43;6.90;;;17.20;99.90;;;;;;4391980;32;20560;-68
2021/08/08 07:23:05;;;;;;;24.37;7.07;;;17.30;99.90;;;;;;4392201;32;20163;-67
2021/08/08 07:25:33;;;;;;;26.87;6.23;;;17.40;99.90;;;;;;4392461;32;20132;-67
2021/08/08 07:28:00;;;;;;;18.30;6.37;;;17.40;99.90;;;;;;4391513;32;20182;-65
2021/08/08 07:30:27;;;;;;;24.27;6.40;;;17.10;99.90;;;;;;4391876;32;20132;-67
2021/08/08 07:32:53;;;;;;;22.77;6.20;;;17.30;99.90;;;;;;4393390;32;20144;-71
2021/08/08 07:35:20;;;;;;;16.27;5.50;;;17.60;99.90;;;;;;4392643;32;20166;-67
2021/08/08 07:37:48;;;;;;;20.43;6.00;;;18.00;99.90;;;;;;4391441;32;20475;-67
2021/08/08 07:40:15;;;;;;;24.73;6.70;;;18.40;99.90;;;;;;4391122;32;20140;-68
2021/08/08 07:42:49;;;;;;;22.67;5.60;;;18.40;99.90;;;;;;4391441;32;20148;-66
2021/08/08 07:45:17;;;;;;;13.80;5.70;;;18.20;99.90;;;;;;4392381;32;20148;-65
2021/08/08 07:47:44;;;;;;;24.97;5.87;;;18.10;99.90;;;;;;4392868;32;20148;-66
2021/08/08 07:50:11;;;;;;;18.70;5.20;;;18.30;99.90;;;;;;4393088;32;20216;-68
2021/08/08 07:52:38;;;;;;;15.27;6.63;;;18.40;99.90;;;;;;4391160;32;20502;-68
2021/08/08 07:55:06;;;;;;;17.90;4.83;;;19.60;99.90;;;;;;4392902;32;20175;-66
2021/08/08 07:57:33;;;;;;;23.67;5.37;;;20.00;99.90;;;;;;4391492;32;20187;-67
2021/08/08 08:00:05;;;;;;;18.40;5.23;;;19.90;99.90;;;;;;4390995;32;20144;-66
2021/08/08 08:02:34;;;;;;;17.83;4.03;;;19.70;99.90;;;;;;4388587;32;20191;-67
2021/08/08 08:05:01;;;;;;;18.30;4.67;;;21.00;99.90;;;;;;4392430;32;20140;-68
2021/08/08 08:07:29;;;;;;;18.10;5.00;;;22.10;99.90;;;;;;4391208;32;20144;-66
2021/08/08 08:09:56;;;;;;;15.63;4.03;;;20.70;99.90;;;;;;4390950;32;20182;-67
2021/08/08 08:12:23;;;;;;;14.20;3.87;;;20.10;99.90;;;;;;4390225;32;20139;-68
2021/08/08 08:14:50;;;;;;;13.20;4.40;;;20.30;99.90;;;;;;4390771;32;20207;-69
2021/08/08 08:17:19;;;;;;;13.57;3.97;;;21.90;99.90;;;;;;4390777;32;20207;-68
2021/08/08 08:19:46;;;;;;;14.70;3.90;;;24.10;99.90;;;;;;4390476;32;20579;-70
2021/08/08 08:22:16;;;;;;;12.43;3.97;;;25.30;99.90;;;;;;4390986;32;20205;-66
2021/08/08 08:24:43;;;;;;;15.00;4.63;;;24.90;98.90;;;;;;4390858;32;20576;-67
2021/08/08 08:27:10;;;;;;;11.47;3.67;;;26.60;99.90;;;;;;4392203;32;20149;-66
2021/08/08 08:29:38;;;;;;;13.70;4.90;;;28.80;94.60;;;;;;4390856;32;20183;-69
2021/08/08 08:32:05;;;;;;;12.03;3.80;;;27.50;93.70;;;;;;4390757;32;20182;-69
2021/08/08 08:34:34;;;;;;;21.90;4.07;;;26.50;95.20;;;;;;4390888;32;20586;-66
2021/08/08 08:37:01;;;;;;;17.20;4.23;;;25.20;96.50;;;;;;4390480;32;20190;-69
2021/08/08 08:39:30;;;;;;;17.07;3.97;;;24.00;98.30;;;;;;4390802;32;20627;-67
2021/08/08 08:42:02;;;;;;;13.87;4.27;;;22.20;99.90;;;;;;4390380;32;20143;-67
2021/08/08 08:44:30;;;;;;;15.40;4.23;;;20.60;99.90;;;;;;4390650;32;20164;-65
2021/08/08 08:46:58;;;;;;;12.37;4.53;;;22.30;99.90;;;;;;4389809;32;20163;-65
2021/08/08 08:49:28;;;;;;;14.07;4.50;;;22.40;99.90;;;;;;4390749;32;20156;-66
2021/08/08 08:52:03;;;;;;;18.37;4.60;;;22.20;99.90;;;;;;4390251;32;20590;-67
2021/08/08 08:54:30;;;;;;;13.97;4.03;;;22.80;99.90;;;;;;4391216;32;20459;-67
2021/08/08 08:56:59;;;;;;;23.57;4.60;;;22.00;99.90;;;;;;4390593;32;20178;-66
2021/08/08 08:59:27;;;;;;;9.40;4.33;;;20.90;99.90;;;;;;4390521;32;20564;-67
2021/08/08 09:01:53;;;;;;;14.10;4.30;;;19.60;99.90;;;;;;4390789;32;20180;-67
2021/08/08 09:04:20;;;;;;;16.60;4.73;;;19.40;99.90;;;;;;4390370;32;20140;-68
2021/08/08 09:06:48;;;;;;;15.37;3.93;;;19.50;99.90;;;;;;4390410;32;20144;-65
2021/08/08 09:09:16;;;;;;;11.70;3.70;;;24.20;99.90;;;;;;4392329;32;20179;-68
2021/08/08 09:11:45;;;;;;;15.33;4.23;;;30.00;93.40;;;;;;4397703;32;20607;-68
2021/08/08 09:14:14;;;;;;;14.18;3.35;;;32.10;81.00;;;;;;4388855;32;20586;-66
2021/08/08 09:16:43;;;;;;;16.73;4.03;;;31.90;77.80;;;;;;4387703;32;20219;-68
2021/08/08 09:19:18;;;;;;;15.07;3.80;;;29.90;79.90;;;;;;4389193;32;20540;-67
2021/08/08 09:21:46;;;;;;;14.60;3.93;;;27.00;88.80;;;;;;4390828;32;20167;-66
2021/08/08 09:27:11;;;;;;;12.70;3.73;;;22.40;98.30;;;;;;4365911;32;20172;-66
2021/08/08 09:29:41;;;;;;;14.83;3.77;;;20.70;99.90;;;;;;4391644;32;20243;-68
2021/08/08 09:32:09;;;;;;;14.07;5.30;;;20.30;99.90;;;;;;4394819;32;20160;-66
2021/08/08 09:34:37;;;;;;;11.40;3.70;;;20.50;99.90;;;;;;4396577;32;20168;-67
2021/08/08 09:37:07;;;;;;;8.13;3.67;;;20.20;99.90;;;;;;4390294;32;20610;-67
2021/08/08 09:39:38;;;;;;;15.37;4.07;;;19.80;99.90;;;;;;4390654;32;20180;-66
2021/08/08 09:42:11;;;;;;;13.07;4.20;;;20.00;99.90;;;;;;4392018;32;20575;-68
2021/08/08 09:44:49;;;;;;;17.47;5.07;;;20.20;99.90;;;;;;4390210;32;20167;-67
2021/08/08 09:47:16;;;;;;;10.97;4.33;;;20.30;99.90;;;;;;4389989;32;20154;-68
2021/08/08 09:49:43;;;;;;;19.17;4.93;;;20.20;99.90;;;;;;4390136;32;20176;-67
2021/08/08 09:52:10;;;;;;;13.33;4.07;;;19.90;99.90;;;;;;4390126;32;20148;-66
2021/08/08 09:54:38;;;;;;;9.53;3.77;;;19.90;99.90;;;;;;4391045;32;20144;-66
2021/08/08 09:57:06;;;;;;;15.43;4.33;;;19.90;99.90;;;;;;4390475;32;20167;-65
2021/08/08 09:59:34;;;;;;;15.53;3.90;;;20.10;99.90;;;;;;4390934;32;20176;-66
2021/08/08 10:02:01;;;;;;;9.80;4.03;;;20.30;99.90;;;;;;4391030;32;20193;-67
2021/08/08 10:04:29;;;;;;;13.97;4.10;;;20.60;99.90;;;;;;4391659;32;20155;-65
2021/08/08 10:06:58;;;;;;;9.27;3.37;;;21.10;99.90;;;;;;4393469;32;20509;-67
2021/08/08 10:09:28;;;;;;;12.23;3.90;;;20.90;99.90;;;;;;4392903;32;20152;-66
2021/08/08 10:12:00;;;;;;;11.17;3.53;;;20.70;99.90;;;;;;4393508;32;20140;-67
2021/08/08 10:14:29;;;;;;;10.27;3.60;;;20.80;99.90;;;;;;4393857;32;20163;-65
2021/08/08 10:16:56;;;;;;;13.23;3.70;;;21.00;99.90;;;;;;4392817;32;20168;-67
2021/08/08 10:19:23;;;;;;;8.97;3.57;;;20.90;99.90;;;;;;4392038;32;20230;-65
2021/08/08 10:21:50;;;;;;;17.20;4.97;;;20.90;99.90;;;;;;4391859;32;20143;-66
2021/08/08 10:24:19;;;;;;;13.13;3.63;;;20.30;99.90;;;;;;4392999;32;20178;-68
2021/08/08 10:26:46;;;;;;;13.03;3.37;;;20.10;99.90;;;;;;4392591;32;20186;-67
2021/08/08 10:29:15;;;;;;;14.37;3.93;;;20.00;99.90;;;;;;4392020;32;20600;-66
2021/08/08 10:31:43;;;;;;;17.53;4.23;;;20.10;99.90;;;;;;4392662;32;20219;-64
2021/08/08 10:34:10;;;;;;;18.30;4.63;;;20.40;99.90;;;;;;4392445;32;20475;-64
2021/08/08 10:36:37;;;;;;;18.70;4.10;;;20.50;99.90;;;;;;4392686;32;20144;-64
2021/08/08 10:39:11;;;;;;;13.90;4.07;;;20.70;99.90;;;;;;4392435;32;20184;-65
2021/08/08 10:41:38;;;;;;;9.77;4.70;;;20.90;99.90;;;;;;4393241;32;20178;-64
2021/08/08 10:44:09;;;;;;;21.90;5.57;;;21.00;99.90;;;;;;4392304;32;20140;-65
2021/08/08 10:46:49;;;;;;;20.40;4.63;;;21.00;99.90;;;;;;4393087;32;20144;-65
2021/08/08 10:49:27;;;;;;;13.33;4.93;;;20.90;99.90;;;;;;4392077;32;20560;-64
2021/08/08 10:51:59;;;;;;;9.73;3.97;;;20.80;99.90;;;;;;4391712;32;20486;-66
2021/08/08 10:54:26;;;;;;;12.00;4.30;;;20.40;99.90;;;;;;4391667;32;20286;-64
2021/08/08 10:56:53;;;;;;;8.83;3.57;;;20.40;99.90;;;;;;4391578;32;20141;-65
2021/08/08 10:59:21;;;;;;;10.13;4.30;;;20.40;99.90;;;;;;4393228;32;20144;-65
2021/08/08 11:02:07;;;;;;;10.43;3.60;;;20.60;99.90;;;;;;4392260;32;20148;-64
2021/08/08 11:04:34;;;;;;;14.97;3.67;;;20.80;99.90;;;;;;4392606;32;20231;-65
2021/08/08 11:07:03;;;;;;;12.63;4.70;;;21.10;99.90;;;;;;4392679;32;20552;-65
2021/08/08 11:09:30;;;;;;;17.63;4.40;;;21.50;99.90;;;;;;4391955;32;20583;-65
2021/08/08 11:11:57;;;;;;;12.17;3.23;;;21.90;99.90;;;;;;4391864;32;20207;-63
2021/08/08 11:14:26;;;;;;;8.60;3.90;;;21.70;99.90;;;;;;4391684;32;20175;-66
2021/08/08 11:17:02;;;;;;;7.87;3.50;;;21.70;99.90;;;;;;4391960;32;20165;-64
2021/08/08 11:19:35;;;;;;;9.73;3.27;;;21.70;99.90;;;;;;4391938;32;20163;-65
2021/08/08 11:22:10;;;;;;;11.87;3.37;;;21.60;99.90;;;;;;4391740;32;20217;-64
2021/08/08 11:24:37;;;;;;;9.20;2.90;;;21.70;99.90;;;;;;4391538;32;20185;-65
2021/08/08 11:27:05;;;;;;;11.17;4.30;;;22.00;99.90;;;;;;4343842;32;1705707;-65
2021/08/08 11:29:33;;;;;;;9.93;3.00;;;22.30;99.90;;;;;;4400724;32;20480;-65
2021/08/08 11:32:03;;;;;;;10.10;3.20;;;22.20;99.90;;;;;;4406819;32;20155;-65
2021/08/08 11:34:31;;;;;;;10.00;3.53;;;22.00;99.90;;;;;;4406605;32;20178;-65
2021/08/08 11:36:58;;;;;;;10.13;3.33;;;21.80;99.90;;;;;;4406825;32;20167;-66
2021/08/08 11:39:32;;;;;;;10.83;3.40;;;21.60;99.90;;;;;;4406932;32;20563;-65
2021/08/08 11:42:04;;;;;;;10.57;3.83;;;21.70;99.90;;;;;;4406535;32;20548;-65
2021/08/08 11:44:39;;;;;;;10.17;3.50;;;21.30;99.90;;;;;;4406353;32;20166;-65
2021/08/08 11:47:08;;;;;;;12.40;3.67;;;21.10;99.90;;;;;;4406452;32;20155;-65
2021/08/08 11:49:44;;;;;;;7.27;3.57;;;21.00;99.90;;;;;;4407264;32;20171;-64
2021/08/08 11:52:15;;;;;;;9.27;3.73;;;21.10;99.90;;;;;;4406437;32;20174;-66
2021/08/08 11:54:43;;;;;;;10.53;3.57;;;21.10;99.90;;;;;;4406579;32;20586;-66
2021/08/08 11:57:10;;;;;;;8.60;3.47;;;21.30;99.90;;;;;;4406367;32;20175;-65
2021/08/08 11:59:38;;;;;;;10.57;3.60;;;21.80;99.90;;;;;;4406368;32;20594;-65
2021/08/08 12:02:08;;;;;;;7.80;3.30;;;22.00;99.90;;;;;;4406623;32;20182;-65
2021/08/08 12:04:41;;;;;;;9.57;3.10;;;22.00;99.90;;;;;;4407110;32;20201;-67
2021/08/08 12:07:11;;;;;;;7.60;3.43;;;21.80;99.90;;;;;;4406384;32;20156;-65
2021/08/08 12:09:38;;;;;;;8.77;4.00;;;21.50;99.90;;;;;;4406230;32;20174;-66
2021/08/08 12:12:07;;;;;;;6.70;2.83;;;21.40;99.90;;;;;;4406385;32;20257;-65
2021/08/08 12:14:36;;;;;;;9.33;3.10;;;21.50;99.90;;;;;;4407964;32;20167;-66
2021/08/08 12:17:06;;;;;;;10.43;2.87;;;21.40;99.90;;;;;;4406503;32;20147;-65
2021/08/08 12:19:36;;;;;;;9.03;2.90;;;21.10;99.90;;;;;;4406548;32;20155;-67
2021/08/08 12:22:05;;;;;;;11.83;3.23;;;21.00;99.90;;;;;;4407051;32;20207;-64
2021/08/08 12:24:34;;;;;;;9.27;3.13;;;20.90;99.90;;;;;;4400270;32;20225;-66
2021/08/08 12:27:01;;;;;;;13.67;4.77;;;20.40;99.90;;;;;;4406306;32;20178;-64
2021/08/08 12:29:32;;;;;;;12.17;4.57;;;19.30;99.90;;;;;;4406065;32;20155;-66
2021/08/08 12:32:07;;;;;;;7.37;3.57;;;18.20;99.90;;;;;;4406436;32;20182;-64
2021/08/08 12:34:36;;;;;;;5.23;2.30;;;17.50;99.90;;;;;;4405834;32;20203;-65
2021/08/08 12:37:06;;;;;;;6.13;2.70;;;16.90;99.90;;;;;;4407289;32;20167;-65
2021/08/08 12:39:35;;;;;;;5.57;2.83;;;16.60;99.90;;;;;;4405963;32;20156;-66
2021/08/08 12:42:03;;;;;;;6.67;3.53;;;16.50;99.90;;;;;;4406696;32;20147;-66